createdAt,value
2022-11-16T00:05:40.062Z,13.25
2022-11-16T00:08:08.328Z,12.28
2022-11-16T00:10:36.244Z,13.15
2022-11-16T00:13:04.110Z,14.57
2022-11-16T00:15:32.048Z,14.41
2022-11-16T00:17:59.900Z,13.12
2022-11-16T00:20:28.056Z,12.29
2022-11-16T00:22:55.991Z,13.22
2022-11-16T00:25:23.913Z,14.52
2022-11-16T00:27:51.711Z,14.40
2022-11-16T00:30:19.680Z,13.05
2022-11-16T00:32:47.548Z,12.43
2022-11-16T00:35:15.462Z,13.64
2022-11-16T00:37:43.421Z,14.70
2022-11-16T00:40:12.370Z,14.06
2022-11-16T00:42:40.232Z,12.80
2022-11-16T00:45:09.130Z,12.35
2022-11-16T00:47:37.188Z,13.57
2022-11-16T00:50:06.130Z,14.74
2022-11-16T00:52:33.996Z,14.34
2022-11-16T00:55:01.867Z,13.04
2022-11-16T00:57:29.772Z,12.50
2022-11-16T00:59:57.576Z,13.75
2022-11-16T01:02:25.323Z,14.87
2022-11-16T01:04:53.142Z,14.45
2022-11-16T01:07:21.038Z,13.13
2022-11-16T01:09:48.921Z,12.56
2022-11-16T01:12:17.412Z,13.71
2022-11-16T01:14:47.513Z,14.76
2022-11-16T01:17:15.589Z,13.93
2022-11-16T01:19:43.529Z,12.76
2022-11-16T01:22:11.377Z,13.07
2022-11-16T01:24:39.254Z,14.32
2022-11-16T01:27:07.144Z,14.50
2022-11-16T01:29:35.195Z,13.27
2022-11-16T01:32:03.230Z,12.63
2022-11-16T01:34:31.063Z,13.73
2022-11-16T01:36:58.981Z,14.81
2022-11-16T01:39:26.919Z,14.15
2022-11-16T01:41:54.833Z,12.93
2022-11-16T01:44:31.965Z,13.32
2022-11-16T01:47:02.445Z,14.34
2022-11-16T01:49:35.405Z,13.59
2022-11-16T01:52:08.241Z,12.58
2022-11-16T01:54:38.109Z,13.30
2022-11-16T01:57:08.661Z,14.49
2022-11-16T01:59:36.955Z,14.84
2022-11-16T02:02:05.002Z,13.55
2022-11-16T02:04:32.880Z,12.47
2022-11-16T02:07:30.349Z,12.85
2022-11-16T02:10:01.659Z,14.28
2022-11-16T02:12:44.723Z,15.00
2022-11-16T02:15:26.290Z,13.77
2022-11-16T02:18:23.235Z,12.66
2022-11-16T02:21:22.355Z,13.73
2022-11-16T02:24:15.043Z,15.06
2022-11-16T02:26:48.332Z,14.10
2022-11-16T02:29:38.979Z,12.82
2022-11-16T02:32:14.285Z,13.17
2022-11-16T02:34:51.906Z,14.65
2022-11-16T02:37:23.243Z,14.43
2022-11-16T02:39:58.445Z,13.10
2022-11-16T02:42:31.482Z,12.86
2022-11-16T02:45:00.456Z,14.22
2022-11-16T02:47:32.284Z,14.88
2022-11-16T02:50:06.330Z,13.62
2022-11-16T02:52:35.995Z,12.78
2022-11-16T02:55:04.349Z,13.80
2022-11-16T02:57:59.453Z,14.84
2022-11-16T03:00:39.063Z,13.92
2022-11-16T03:03:23.663Z,12.72
2022-11-16T03:05:57.710Z,13.47
2022-11-16T03:08:31.465Z,14.72
2022-11-16T03:11:26.155Z,14.93
2022-11-16T03:13:57.762Z,13.36
2022-11-16T03:16:34.655Z,12.49
2022-11-16T03:19:06.368Z,13.46
2022-11-16T03:21:41.939Z,14.59
2022-11-16T03:24:10.128Z,13.87
2022-11-16T03:27:25.096Z,12.70
2022-11-16T03:30:14.631Z,13.33
2022-11-16T03:33:05.349Z,14.71
2022-11-16T03:35:41.093Z,14.02
2022-11-16T03:38:09.829Z,12.67
2022-11-16T03:40:38.613Z,12.30
2022-11-16T03:43:07.966Z,13.61
2022-11-16T03:45:36.357Z,13.97
2022-11-16T03:48:04.616Z,12.74
2022-11-16T03:50:33.284Z,11.96
2022-11-16T03:53:01.125Z,13.01
2022-11-16T03:55:29.140Z,14.09
2022-11-16T03:57:56.993Z,13.41
2022-11-16T04:00:24.785Z,12.19
2022-11-16T04:02:52.757Z,12.23
2022-11-16T04:05:39.248Z,13.60
2022-11-16T04:08:34.280Z,14.19
2022-11-16T04:11:20.864Z,12.74
2022-11-16T04:14:09.186Z,11.73
2022-11-16T04:16:56.169Z,12.71
2022-11-16T04:19:42.913Z,14.07
2022-11-16T04:23:01.318Z,13.38
2022-11-16T04:25:33.254Z,11.86
2022-11-16T04:28:19.405Z,12.27
2022-11-16T04:31:10.952Z,13.88
2022-11-16T04:33:57.916Z,13.21
2022-11-16T04:36:44.063Z,11.93
2022-11-16T04:39:12.019Z,12.15
2022-11-16T04:41:58.499Z,13.58
2022-11-16T04:44:46.311Z,13.72
2022-11-16T04:47:14.094Z,12.31
2022-11-16T04:49:41.977Z,11.97
2022-11-16T04:52:10.186Z,13.30
2022-11-16T04:54:38.070Z,14.10
2022-11-16T04:57:05.941Z,13.02
2022-11-16T04:59:33.815Z,11.92
2022-11-16T05:02:10.901Z,12.25
2022-11-16T05:04:43.955Z,13.82
2022-11-16T05:07:14.780Z,13.80
2022-11-16T05:09:46.574Z,12.50
2022-11-16T05:12:20.192Z,11.80
2022-11-16T05:14:48.137Z,13.05
2022-11-16T05:17:17.284Z,13.70
2022-11-16T05:20:03.872Z,12.58
2022-11-16T05:22:31.886Z,11.46
2022-11-16T05:25:00.003Z,11.80
2022-11-16T05:27:29.315Z,13.32
2022-11-16T05:29:57.261Z,13.24
2022-11-16T05:32:26.969Z,12.02
2022-11-16T05:34:54.799Z,11.73
2022-11-16T05:37:26.332Z,13.00
2022-11-16T05:39:55.032Z,13.87
2022-11-16T05:42:23.423Z,12.90
2022-11-16T05:44:53.203Z,11.82
2022-11-16T05:47:21.124Z,12.01
2022-11-16T05:49:48.943Z,13.37
2022-11-16T05:52:16.832Z,13.44
2022-11-16T05:54:44.861Z,12.26
2022-11-16T05:57:12.777Z,11.45
2022-11-16T05:59:46.349Z,12.33
2022-11-16T06:02:14.592Z,13.34
2022-11-16T06:04:42.573Z,12.43
2022-11-16T06:07:10.501Z,11.56
2022-11-16T06:09:38.666Z,12.40
2022-11-16T06:12:06.576Z,13.69
2022-11-16T06:14:34.364Z,13.22
2022-11-16T06:17:02.122Z,12.10
2022-11-16T06:19:32.497Z,11.69
2022-11-16T06:22:00.675Z,13.06
2022-11-16T06:24:28.532Z,13.86
2022-11-16T06:26:56.305Z,12.86
2022-11-16T06:29:24.187Z,11.80
2022-11-16T06:31:52.076Z,12.01
2022-11-16T06:34:19.896Z,13.54
2022-11-16T06:36:47.831Z,14.18
2022-11-16T06:39:15.734Z,13.00
2022-11-16T06:41:43.545Z,11.93
2022-11-16T06:44:11.530Z,12.38
2022-11-16T06:46:39.291Z,13.75
2022-11-16T06:49:07.206Z,13.04
2022-11-16T06:51:35.189Z,11.94
2022-11-16T06:54:02.943Z,12.40
2022-11-16T06:56:30.982Z,13.63
2022-11-16T06:58:59.219Z,12.98
2022-11-16T07:01:27.210Z,11.91
2022-11-16T07:03:57.013Z,11.74
2022-11-16T07:06:25.055Z,13.29
2022-11-16T07:08:53.220Z,13.71
2022-11-16T07:11:21.314Z,12.51
2022-11-16T07:13:49.420Z,11.54
2022-11-16T07:16:17.643Z,11.62
2022-11-16T07:18:45.512Z,13.23
2022-11-16T07:21:16.250Z,13.55
2022-11-16T07:23:44.740Z,12.32
2022-11-16T07:26:12.598Z,11.46
2022-11-16T07:28:46.637Z,12.35
2022-11-16T07:31:16.696Z,13.34
2022-11-16T07:33:44.640Z,12.34
2022-11-16T07:36:14.727Z,11.45
2022-11-16T07:38:43.036Z,12.03
2022-11-16T07:41:19.531Z,13.47
2022-11-16T07:43:52.820Z,13.28
2022-11-16T07:49:16.297Z,11.48
2022-11-16T07:51:44.403Z,12.87
2022-11-16T07:54:14.448Z,13.62
2022-11-16T07:56:42.652Z,12.56
2022-11-16T07:59:10.483Z,11.59
2022-11-16T08:01:38.394Z,11.40
2022-11-16T08:04:06.209Z,12.58
2022-11-16T08:06:34.245Z,12.97
2022-11-16T08:09:02.214Z,12.08
2022-11-16T08:11:30.034Z,11.33
2022-11-16T08:13:58.166Z,11.99
2022-11-16T08:16:26.086Z,13.25
2022-11-16T08:18:53.923Z,12.88
2022-11-16T08:21:21.762Z,11.86
2022-11-16T08:23:53.825Z,11.31
2022-11-16T08:26:24.938Z,12.60
2022-11-16T08:28:57.236Z,13.28
2022-11-16T08:31:28.570Z,12.22
2022-11-16T08:33:56.826Z,11.28
2022-11-16T08:36:25.084Z,11.32
2022-11-16T08:38:53.557Z,12.93
2022-11-16T08:41:21.931Z,13.59
2022-11-16T08:43:50.924Z,12.56
2022-11-16T08:46:20.478Z,11.60
2022-11-16T08:48:48.491Z,11.17
2022-11-16T08:51:19.542Z,12.44
2022-11-16T08:53:49.914Z,13.28
2022-11-16T08:56:18.813Z,12.36
2022-11-16T08:58:47.528Z,11.47
2022-11-16T09:01:19.379Z,11.53
2022-11-16T09:03:47.595Z,13.25
2022-11-16T09:06:16.320Z,13.78
2022-11-16T09:08:46.138Z,12.70
2022-11-16T09:11:21.807Z,11.73
2022-11-16T09:13:52.166Z,12.02
2022-11-16T09:16:21.286Z,13.17
2022-11-16T09:18:51.065Z,13.03
2022-11-16T09:21:19.781Z,12.05
2022-11-16T09:23:49.170Z,11.45
2022-11-16T09:26:21.009Z,12.37
2022-11-16T09:28:58.484Z,13.44
2022-11-16T09:31:32.873Z,13.23
2022-11-16T09:34:01.224Z,12.26
2022-11-16T09:36:30.057Z,11.60
2022-11-16T09:39:29.074Z,12.51
2022-11-16T09:42:29.946Z,13.83
2022-11-16T09:45:00.123Z,12.70
2022-11-16T09:48:12.591Z,11.86
2022-11-16T09:50:54.035Z,12.16
2022-11-16T09:53:52.091Z,13.97
2022-11-16T09:56:31.683Z,13.62
2022-11-16T09:59:17.979Z,12.40
2022-11-16T10:02:05.820Z,11.61
2022-11-16T10:05:04.262Z,12.45
2022-11-16T10:08:03.606Z,14.02
2022-11-16T10:10:40.143Z,13.43
2022-11-16T10:13:19.686Z,12.35
2022-11-16T10:16:12.686Z,11.94
2022-11-16T10:19:21.014Z,13.30
2022-11-16T10:22:36.221Z,13.36
2022-11-16T10:25:17.130Z,12.05
2022-11-16T10:28:05.928Z,11.82
2022-11-16T10:30:45.681Z,13.12
2022-11-16T10:33:18.820Z,13.86
2022-11-16T10:35:57.318Z,13.04
2022-11-16T10:38:31.041Z,11.95
2022-11-16T10:41:22.495Z,12.18
2022-11-16T10:43:56.904Z,13.64
2022-11-16T10:46:36.716Z,12.82
2022-11-16T10:49:18.482Z,11.79
2022-11-16T10:51:46.294Z,12.31
2022-11-16T10:54:16.137Z,13.80
2022-11-16T10:56:47.778Z,13.40
2022-11-16T10:59:19.128Z,12.29
2022-11-16T11:01:51.338Z,11.49
2022-11-16T11:04:20.793Z,11.86
2022-11-16T11:06:55.591Z,13.53
2022-11-16T11:09:28.107Z,13.42
2022-11-16T11:12:37.011Z,12.27
2022-11-16T11:15:11.041Z,11.57
2022-11-16T11:17:50.044Z,13.04
2022-11-16T11:20:17.990Z,13.36
2022-11-16T11:22:58.966Z,12.29
2022-11-16T11:25:30.908Z,11.56
2022-11-16T11:28:23.724Z,12.65
2022-11-16T11:31:10.033Z,13.75
2022-11-16T11:33:51.569Z,12.61
2022-11-16T11:36:44.261Z,11.65
2022-11-16T11:39:12.294Z,12.29
2022-11-16T11:41:45.459Z,13.90
2022-11-16T11:44:13.336Z,13.69
2022-11-16T11:49:43.408Z,11.63
2022-11-16T11:52:25.588Z,12.65
2022-11-16T11:54:56.707Z,13.51
2022-11-16T11:57:25.262Z,12.49
2022-11-16T11:59:54.495Z,11.57
2022-11-16T12:02:47.364Z,11.54
2022-11-16T12:05:26.131Z,13.31
2022-11-16T12:08:17.386Z,13.01
2022-11-16T12:11:06.108Z,11.74
2022-11-16T12:13:58.034Z,12.03
2022-11-16T12:16:46.178Z,13.57
2022-11-16T12:19:35.751Z,12.86
2022-11-16T12:22:29.894Z,11.65
2022-11-16T12:25:47.188Z,11.75
2022-11-16T12:28:52.507Z,13.59
2022-11-16T12:32:16.180Z,12.58
2022-11-16T12:35:15.959Z,11.34
2022-11-16T12:38:29.736Z,12.30
2022-11-16T12:41:04.671Z,13.34
2022-11-16T12:44:12.318Z,12.18
2022-11-16T12:47:08.059Z,11.24
2022-11-16T12:49:52.498Z,12.68
2022-11-16T12:52:32.667Z,13.44
2022-11-16T12:55:26.037Z,12.21
2022-11-16T12:58:26.090Z,11.22
2022-11-16T13:01:31.905Z,12.00
2022-11-16T13:04:12.873Z,13.05
2022-11-16T13:06:50.113Z,12.09
2022-11-16T13:09:26.843Z,11.12
2022-11-16T13:11:58.719Z,11.69
2022-11-16T13:14:40.187Z,12.97
2022-11-16T13:17:08.222Z,12.79
2022-11-16T13:19:43.142Z,11.69
2022-11-16T13:22:19.960Z,10.98
2022-11-16T13:25:20.847Z,11.85
2022-11-16T13:28:21.332Z,13.15
2022-11-16T13:31:13.860Z,12.01
2022-11-16T13:34:02.084Z,11.00
2022-11-16T13:36:37.046Z,11.49
2022-11-16T13:39:07.176Z,13.21
2022-11-16T13:41:40.349Z,13.08
2022-11-16T13:44:28.897Z,11.87
2022-11-16T13:47:07.412Z,11.12
2022-11-16T13:49:41.161Z,12.46
2022-11-16T13:52:46.223Z,13.33
2022-11-16T13:55:14.338Z,12.13
2022-11-16T13:57:51.660Z,11.14
2022-11-16T14:00:59.504Z,10.92
2022-11-16T14:03:42.145Z,12.52
2022-11-16T14:06:12.996Z,12.21
2022-11-16T14:08:40.753Z,11.24
2022-11-16T14:11:47.121Z,10.78
2022-11-16T14:15:04.746Z,12.27
2022-11-16T14:17:57.267Z,12.17
2022-11-16T14:20:55.076Z,11.03
2022-11-16T14:24:06.339Z,10.88
2022-11-16T14:26:46.768Z,12.69
2022-11-16T14:29:51.850Z,13.09
2022-11-16T14:32:23.138Z,11.68
2022-11-16T14:34:53.593Z,11.07
2022-11-16T14:37:30.505Z,12.15
2022-11-16T14:40:18.878Z,13.00
2022-11-16T14:43:15.493Z,11.88
2022-11-16T14:45:47.682Z,10.88
2022-11-16T14:48:18.941Z,11.30
2022-11-16T14:51:02.819Z,12.81
2022-11-16T14:53:32.288Z,12.52
2022-11-16T14:56:26.716Z,11.41
2022-11-16T14:58:56.020Z,10.57
2022-11-16T15:01:33.548Z,11.24
2022-11-16T15:04:10.402Z,12.52
2022-11-16T15:06:49.078Z,11.88
2022-11-16T15:09:26.641Z,10.91
2022-11-16T15:12:13.597Z,10.43
2022-11-16T15:14:52.927Z,11.70
2022-11-16T15:17:30.061Z,12.33
2022-11-16T15:20:05.225Z,11.33
2022-11-16T15:22:45.686Z,10.50
2022-11-16T15:25:45.243Z,10.48
2022-11-16T15:28:21.864Z,11.86
2022-11-16T15:31:02.014Z,12.34
2022-11-16T15:33:36.078Z,11.34
2022-11-16T15:36:31.815Z,10.47
2022-11-16T15:39:01.082Z,10.92
2022-11-16T15:41:31.006Z,12.19
2022-11-16T15:44:16.537Z,12.34
2022-11-16T15:46:49.261Z,11.25
2022-11-16T15:49:30.411Z,10.46
2022-11-16T15:52:02.189Z,10.64
2022-11-16T15:54:52.347Z,12.18
2022-11-16T15:57:22.939Z,12.83
2022-11-16T15:59:55.883Z,11.78
2022-11-16T16:02:30.520Z,10.83
2022-11-16T16:05:01.526Z,10.57
2022-11-16T16:07:40.612Z,11.94
2022-11-16T16:10:29.685Z,12.93
2022-11-16T16:13:00.521Z,11.71
2022-11-16T16:15:36.226Z,10.76
2022-11-16T16:18:34.604Z,11.39
2022-11-16T16:21:03.405Z,13.22
2022-11-16T16:23:31.670Z,13.14
2022-11-16T16:26:03.970Z,11.85
2022-11-16T16:28:32.235Z,10.96
2022-11-16T16:31:01.031Z,11.66
2022-11-16T16:33:30.460Z,12.93
2022-11-16T16:35:58.885Z,12.60
2022-11-16T16:38:26.947Z,11.44
2022-11-16T16:41:03.184Z,11.04
2022-11-16T16:43:32.085Z,12.31
2022-11-16T16:46:04.297Z,12.96
2022-11-16T16:48:32.460Z,11.88
2022-11-16T16:51:00.725Z,10.90
2022-11-16T16:53:29.096Z,11.26
2022-11-16T16:55:57.192Z,12.61
2022-11-16T16:58:25.421Z,13.21
2022-11-16T17:00:59.860Z,12.09
2022-11-16T17:03:31.200Z,10.97
2022-11-16T17:06:03.086Z,11.05
2022-11-16T17:08:38.332Z,12.56
2022-11-16T17:11:07.013Z,13.02
2022-11-16T17:13:36.058Z,11.85
2022-11-16T17:16:06.123Z,10.82
2022-11-16T17:18:35.019Z,10.99
2022-11-16T17:21:08.491Z,12.36
2022-11-16T17:23:37.494Z,13.00
2022-11-16T17:26:10.105Z,11.81
2022-11-16T17:28:38.439Z,10.72
2022-11-16T17:31:10.337Z,10.77
2022-11-16T17:33:41.645Z,12.38
2022-11-16T17:36:13.775Z,12.96
2022-11-16T17:38:42.157Z,11.71
2022-11-16T17:41:19.751Z,10.67
2022-11-16T17:43:48.201Z,10.61
2022-11-16T17:46:19.545Z,12.11
2022-11-16T17:48:48.602Z,12.27
2022-11-16T17:51:23.354Z,11.15
2022-11-16T17:53:52.313Z,10.18
2022-11-16T17:56:26.183Z,10.53
2022-11-16T17:58:58.560Z,12.13
2022-11-16T18:01:28.287Z,12.02
2022-11-16T18:03:57.412Z,10.87
2022-11-16T18:06:26.483Z,9.99
2022-11-16T18:08:58.775Z,10.38
2022-11-16T18:11:28.859Z,11.32
2022-11-16T18:14:05.800Z,11.09
2022-11-16T18:16:34.944Z,9.95
2022-11-16T18:19:06.330Z,9.37
2022-11-16T18:21:41.949Z,10.07
2022-11-16T18:24:11.082Z,11.78
2022-11-16T18:26:40.956Z,11.82
2022-11-16T18:29:12.978Z,10.48
2022-11-16T18:31:41.930Z,9.53
2022-11-16T18:34:15.514Z,9.24
2022-11-16T18:36:44.207Z,9.54
2022-11-16T18:39:12.894Z,10.69
2022-11-16T18:41:51.779Z,10.99
2022-11-16T18:44:23.635Z,9.90
2022-11-16T18:46:54.566Z,9.08
2022-11-16T18:49:23.571Z,9.61
2022-11-16T18:51:52.653Z,11.45
2022-11-16T18:54:21.640Z,10.73
2022-11-16T18:56:50.304Z,9.64
2022-11-16T18:59:19.040Z,8.85
2022-11-16T19:01:47.853Z,8.76
2022-11-16T19:04:17.035Z,10.36
2022-11-16T19:06:45.923Z,10.14
2022-11-16T19:09:14.719Z,9.11
2022-11-16T19:11:43.756Z,8.37
2022-11-16T19:14:13.102Z,8.38
2022-11-16T19:16:52.498Z,10.19
2022-11-16T19:19:29.973Z,9.82
2022-11-16T19:22:01.147Z,8.76
2022-11-16T19:24:33.968Z,8.04
2022-11-16T19:27:02.972Z,9.16
2022-11-16T19:29:32.038Z,10.73
2022-11-16T19:32:04.003Z,10.04
2022-11-16T19:34:35.137Z,8.96
2022-11-16T19:37:06.772Z,8.16
2022-11-16T19:39:37.470Z,7.75
2022-11-16T19:42:06.643Z,9.37
2022-11-16T19:44:35.409Z,10.19
2022-11-16T19:47:05.574Z,9.16
2022-11-16T19:49:42.269Z,8.17
2022-11-16T19:52:14.453Z,8.29
2022-11-16T19:54:49.005Z,10.05
2022-11-16T19:57:20.981Z,9.51
2022-11-16T19:59:49.750Z,8.47
2022-11-16T20:02:18.748Z,7.78
2022-11-16T20:04:47.736Z,9.03
2022-11-16T20:07:18.415Z,10.82
2022-11-16T20:09:53.344Z,9.78
2022-11-16T20:12:22.426Z,8.61
2022-11-16T20:14:51.992Z,7.84
2022-11-16T20:17:20.948Z,8.21
2022-11-16T20:19:49.883Z,10.16
2022-11-16T20:22:18.788Z,9.78
2022-11-16T20:24:50.502Z,8.67
2022-11-16T20:27:18.782Z,7.89
2022-11-16T20:29:47.392Z,8.58
2022-11-16T20:32:15.780Z,10.66
2022-11-16T20:34:45.339Z,9.99
2022-11-16T20:37:13.564Z,8.84
2022-11-16T20:39:46.114Z,8.01
2022-11-16T20:42:15.620Z,8.17
2022-11-16T20:44:46.792Z,10.17
2022-11-16T20:47:15.109Z,9.96
2022-11-16T20:49:43.421Z,8.85
2022-11-16T20:52:14.702Z,7.99
2022-11-16T20:54:42.968Z,7.90
2022-11-16T20:57:10.895Z,8.80
2022-11-16T20:59:39.231Z,10.03
2022-11-16T21:02:09.557Z,9.48
2022-11-16T21:04:39.144Z,8.41
2022-11-16T21:07:07.266Z,7.73
2022-11-16T21:09:55.733Z,7.65
2022-11-16T21:12:43.086Z,10.10
2022-11-16T21:15:11.033Z,10.39
2022-11-16T21:17:39.212Z,9.19
2022-11-16T21:22:56.146Z,7.61
2022-11-16T21:25:24.321Z,7.63
2022-11-16T21:27:52.601Z,8.01
2022-11-16T21:30:21.088Z,8.28
2022-11-16T21:32:49.179Z,9.39
2022-11-16T21:35:18.039Z,9.82
2022-11-16T21:37:46.106Z,8.75
2022-11-16T21:40:14.424Z,7.97
2022-11-16T21:42:42.932Z,8.66
2022-11-16T21:45:11.344Z,9.95
2022-11-16T21:47:39.655Z,9.45
2022-11-16T21:50:30.486Z,8.43
2022-11-16T21:53:00.436Z,7.74
2022-11-16T21:55:29.029Z,7.98
2022-11-16T21:58:00.761Z,8.48
2022-11-16T22:00:30.127Z,10.00
2022-11-16T22:02:58.762Z,10.40
2022-11-16T22:05:45.452Z,9.26
2022-11-16T22:08:14.086Z,8.22
2022-11-16T22:10:43.450Z,8.51
2022-11-16T22:13:12.029Z,10.14
2022-11-16T22:15:40.495Z,10.05
2022-11-16T22:18:08.966Z,8.96
2022-11-16T22:20:37.092Z,8.17
2022-11-16T22:23:05.567Z,8.16
2022-11-16T22:25:34.231Z,9.84
2022-11-16T22:31:03.004Z,9.30
2022-11-16T22:33:34.466Z,8.35
2022-11-16T22:36:03.873Z,8.37
2022-11-16T22:38:33.945Z,10.02
2022-11-16T22:41:02.793Z,10.31
2022-11-16T22:43:31.784Z,9.23
2022-11-16T22:46:05.635Z,8.36
2022-11-16T22:48:39.565Z,8.71
2022-11-16T22:51:13.116Z,10.27
2022-11-16T22:53:41.215Z,9.63
2022-11-16T22:56:10.627Z,8.70
2022-11-16T22:58:39.232Z,8.02
2022-11-16T23:01:08.490Z,8.53
2022-11-16T23:03:37.229Z,10.29
2022-11-16T23:06:06.087Z,10.18
2022-11-16T23:08:35.436Z,9.07
2022-11-16T23:11:36.533Z,8.25
2022-11-16T23:14:24.656Z,9.20
2022-11-16T23:16:52.961Z,10.84
2022-11-16T23:19:40.582Z,9.98
2022-11-16T23:22:35.720Z,8.81
2022-11-16T23:25:24.031Z,8.82
2022-11-16T23:28:03.628Z,10.63
2022-11-16T23:30:31.648Z,10.01
2022-11-16T23:32:59.686Z,9.02
2022-11-16T23:35:27.605Z,8.36
2022-11-16T23:37:57.379Z,9.22
2022-11-16T23:40:31.747Z,10.60
2022-11-16T23:43:18.309Z,9.84
2022-11-16T23:45:46.411Z,8.75
2022-11-16T23:48:16.579Z,8.35
2022-11-16T23:50:45.829Z,9.87
2022-11-16T23:53:14.242Z,10.53
2022-11-16T23:55:42.266Z,9.49
2022-11-16T23:58:13.857Z,8.60
